Time;durP1;ratioP1;P1;durP2;ratioP2;P2;SDS_P1;SDS_P2;PMS_P1;PMS_P2;Temp;Humidity;BMP_temperature;BMP_pressure;BME280_temperature;BME280_humidity;BME280_pressure;Samples;Min_cycle;Max_cycle;Signal;HPM_P1;HPM_P2
2021/01/30 00:01:13;;;;;;;4.10;1.48;;;;;9.00;100044.00;;;;5029257;28;20196;-80
2021/01/30 00:03:40;;;;;;;1.17;1.08;;;;;8.90;100035.00;;;;5020827;28;20197;-80
2021/01/30 00:06:07;;;;;;;1.15;0.60;;;;;8.90;100045.00;;;;5024026;28;20200;-80
2021/01/30 00:08:33;;;;;;;1.50;1.10;;;;;8.90;100037.00;;;;5031028;28;20207;-79
2021/01/30 00:11:00;;;;;;;1.33;1.00;;;;;8.80;100037.00;;;;5025063;28;20209;-80
2021/01/30 00:13:27;;;;;;;1.05;0.93;;;;;8.80;100047.00;;;;5013805;28;20217;-80
2021/01/30 00:15:54;;;;;;;3.45;1.48;;;;;8.80;100041.00;;;;5026552;28;20684;-80
2021/01/30 00:18:21;;;;;;;1.95;1.20;;;;;8.80;100034.00;;;;5031331;28;20196;-80
2021/01/30 00:20:48;;;;;;;1.35;1.00;;;;;8.70;100039.00;;;;5027660;28;20215;-80
2021/01/30 00:23:15;;;;;;;1.45;1.00;;;;;8.70;100045.00;;;;5030493;28;20593;-79
2021/01/30 00:25:41;;;;;;;2.08;1.20;;;;;8.70;100048.00;;;;5027085;28;20213;-79
2021/01/30 00:28:09;;;;;;;1.20;1.10;;;;;8.70;100042.00;;;;5020488;28;20208;-79
2021/01/30 00:30:36;;;;;;;2.35;1.70;;;;;8.70;100044.00;;;;5027025;28;20192;-80
2021/01/30 00:33:05;;;;;;;1.50;1.17;;;;;8.60;100046.00;;;;5014744;28;20220;-79
2021/01/30 00:35:33;;;;;;;1.60;1.23;;;;;8.60;100050.00;;;;5024810;28;20283;-80
2021/01/30 00:38:00;;;;;;;2.90;1.80;;;;;8.60;100052.00;;;;5011937;28;20224;-80
2021/01/30 00:40:27;;;;;;;2.90;1.75;;;;;8.50;100055.00;;;;5022714;28;20199;-80
2021/01/30 00:42:54;;;;;;;1.60;1.50;;;;;8.50;100054.00;;;;5022196;28;20690;-79
2021/01/30 00:45:24;;;;;;;2.53;1.95;;;;;8.40;100049.00;;;;5015036;28;20198;-79
2021/01/30 00:47:51;;;;;;;2.25;1.67;;;;;8.40;100050.00;;;;5010450;28;20197;-80
2021/01/30 00:50:20;;;;;;;1.58;1.45;;;;;8.40;100040.00;;;;5022602;28;20200;-79
2021/01/30 00:52:47;;;;;;;2.13;1.88;;;;;8.30;100034.00;;;;5019112;28;20228;-79
2021/01/30 00:55:18;;;;;;;3.03;2.17;;;;;8.30;100035.00;;;;5029013;28;20204;-80
2021/01/30 00:57:45;;;;;;;2.38;1.92;;;;;8.30;100023.00;;;;5029542;28;20275;-80
2021/01/30 01:00:15;;;;;;;2.60;2.33;;;;;8.30;100029.00;;;;5027813;28;20620;-80
2021/01/30 01:02:41;;;;;;;2.53;2.28;;;;;8.30;100041.00;;;;5027358;28;20534;-79
2021/01/30 01:05:09;;;;;;;3.72;2.80;;;;;8.30;100048.00;;;;5029518;28;20211;-80
2021/01/30 01:07:37;;;;;;;5.15;2.63;;;;;8.30;100049.00;;;;5028608;28;20612;-79
2021/01/30 01:10:05;;;;;;;3.97;2.80;;;;;8.30;100057.00;;;;5030046;28;20208;-80
2021/01/30 01:12:31;;;;;;;3.28;2.63;;;;;8.30;100063.00;;;;5028130;28;20223;-79
2021/01/30 01:14:58;;;;;;;3.58;2.90;;;;;8.30;100069.00;;;;5026048;28;20196;-80
2021/01/30 01:17:25;;;;;;;5.10;3.10;;;;;8.20;100064.00;;;;5027547;28;20193;-80
2021/01/30 01:19:51;;;;;;;4.53;3.13;;;;;8.20;100069.00;;;;5027217;28;20204;-79
2021/01/30 01:22:18;;;;;;;3.60;2.92;;;;;8.20;100068.00;;;;5029416;28;20197;-79
2021/01/30 01:24:46;;;;;;;3.63;3.03;;;;;8.20;100079.00;;;;5024770;28;20203;-80
2021/01/30 01:27:12;;;;;;;4.60;3.72;;;;;8.20;100073.00;;;;5027753;28;20203;-79
2021/01/30 01:29:39;;;;;;;6.00;3.50;;;;;8.20;100064.00;;;;5028801;28;20190;-80
2021/01/30 01:32:06;;;;;;;4.80;3.33;;;;;8.20;100062.00;;;;5027573;28;20199;-80
2021/01/30 01:34:33;;;;;;;4.15;3.33;;;;;8.20;100078.00;;;;5028603;28;20193;-79
2021/01/30 01:37:01;;;;;;;5.07;3.67;;;;;8.20;100080.00;;;;5020801;28;20327;-79
2021/01/30 01:39:30;;;;;;;3.63;2.88;;;;;8.20;100090.00;;;;5027486;28;20203;-79
2021/01/30 01:42:04;;;;;;;3.42;3.08;;;;;8.20;100092.00;;;;5027972;28;20204;-79
2021/01/30 01:44:31;;;;;;;4.15;3.53;;;;;8.20;100092.00;;;;5027670;28;20200;-80
2021/01/30 01:46:58;;;;;;;4.47;3.28;;;;;8.20;100101.00;;;;5028168;28;20557;-79
2021/01/30 01:49:29;;;;;;;3.83;3.08;;;;;8.20;100101.00;;;;5029917;28;20200;-79
2021/01/30 01:52:04;;;;;;;5.15;3.92;;;;;8.20;100112.00;;;;5027793;28;20200;-80
2021/01/30 01:54:33;;;;;;;4.93;3.42;;;;;8.20;100105.00;;;;5005092;28;20232;-80
2021/01/30 01:57:05;;;;;;;4.13;3.53;;;;;8.20;100093.00;;;;5021065;28;20207;-80
2021/01/30 01:59:32;;;;;;;4.72;3.60;;;;;8.20;100093.00;;;;5022649;28;20197;-79
2021/01/30 02:01:59;;;;;;;5.30;3.97;;;;;8.20;100108.00;;;;5013960;28;20270;-79
2021/01/30 02:04:26;;;;;;;5.22;3.85;;;;;8.10;100108.00;;;;5009971;28;20204;-79
2021/01/30 02:06:54;;;;;;;5.05;3.60;;;;;8.10;100106.00;;;;5008408;28;20204;-81
2021/01/30 02:09:23;;;;;;;5.35;4.30;;;;;8.10;100101.00;;;;5016673;28;20632;-79
2021/01/30 02:12:06;;;;;;;4.95;4.03;;;;;8.00;100098.00;;;;5011267;28;20201;-79
2021/01/30 02:14:36;;;;;;;5.15;3.97;;;;;8.00;100105.00;;;;5006160;28;20285;-80
2021/01/30 02:17:13;;;;;;;5.40;3.78;;;;;8.00;100103.00;;;;5027450;28;20211;-80
2021/01/30 02:20:15;;;;;;;4.78;3.80;;;;;7.90;100098.00;;;;5009270;28;20200;-79
2021/01/30 02:23:27;;;;;;;4.95;3.58;;;;;7.90;100098.00;;;;5016103;28;20204;-79
2021/01/30 02:26:22;;;;;;;5.10;4.07;;;;;7.90;100108.00;;;;5008941;28;20204;-79
2021/01/30 02:29:02;;;;;;;5.97;4.30;;;;;7.80;100122.00;;;;5016995;28;20941;-79
2021/01/30 02:31:42;;;;;;;4.72;4.10;;;;;7.80;100129.00;;;;5018913;28;20220;-79
2021/01/30 02:34:46;;;;;;;4.97;3.83;;;;;7.80;100139.00;;;;5026687;28;20235;-79
2021/01/30 02:37:19;;;;;;;5.00;3.85;;;;;7.80;100141.00;;;;5020421;28;20613;-79
2021/01/30 02:39:52;;;;;;;5.50;4.18;;;;;7.90;100142.00;;;;5026973;28;20207;-79
2021/01/30 02:42:23;;;;;;;4.95;3.67;;;;;7.90;100147.00;;;;5016374;28;20200;-79
2021/01/30 02:44:57;;;;;;;6.32;4.80;;;;;7.90;100141.00;;;;5008846;28;20886;-79
2021/01/30 02:47:25;;;;;;;6.05;4.13;;;;;7.90;100125.00;;;;5009719;28;20197;-79
2021/01/30 02:50:02;;;;;;;5.95;4.97;;;;;7.80;100134.00;;;;5008681;28;20200;-79
2021/01/30 02:52:31;;;;;;;7.20;4.75;;;;;7.80;100119.00;;;;5019837;28;20204;-79
2021/01/30 02:55:00;;;;;;;5.63;4.45;;;;;7.80;100126.00;;;;5027863;28;20247;-79
2021/01/30 02:57:29;;;;;;;5.70;4.45;;;;;7.80;100115.00;;;;5012794;28;20197;-79
2021/01/30 03:00:00;;;;;;;5.90;4.53;;;;;7.80;100115.00;;;;5009335;28;20584;-78
2021/01/30 03:02:29;;;;;;;6.85;4.75;;;;;7.80;100120.00;;;;5009760;28;20204;-80
2021/01/30 03:04:58;;;;;;;6.78;4.63;;;;;7.80;100126.00;;;;5008796;28;20212;-78
2021/01/30 03:08:03;;;;;;;6.63;4.55;;;;;7.70;100127.00;;;;5023930;28;20201;-79
2021/01/30 03:10:35;;;;;;;4.90;3.70;;;;;7.80;100128.00;;;;5022977;28;20188;-79
2021/01/30 03:13:10;;;;;;;4.65;4.03;;;;;7.80;100137.00;;;;5019683;28;20278;-79
2021/01/30 03:15:42;;;;;;;4.32;3.50;;;;;7.80;100135.00;;;;5006969;28;20573;-78
2021/01/30 03:18:12;;;;;;;4.28;3.40;;;;;7.80;100140.00;;;;4998297;28;20303;-80
2021/01/30 03:20:42;;;;;;;5.47;3.88;;;;;7.80;100133.00;;;;5012441;28;20205;-78
2021/01/30 03:23:10;;;;;;;4.57;4.07;;;;;7.80;100147.00;;;;5018753;28;20207;-79
2021/01/30 03:25:39;;;;;;;4.47;3.45;;;;;7.80;100148.00;;;;5027999;28;20251;-79
2021/01/30 03:28:06;;;;;;;4.82;3.25;;;;;7.80;100151.00;;;;5001564;28;20192;-78
2021/01/30 03:30:34;;;;;;;4.25;3.42;;;;;7.80;100151.00;;;;5016140;28;20999;-79
2021/01/30 03:33:01;;;;;;;3.90;3.05;;;;;7.80;100150.00;;;;5017078;28;20231;-78
2021/01/30 03:35:28;;;;;;;4.38;3.40;;;;;7.80;100151.00;;;;5012125;28;20275;-79
2021/01/30 03:37:55;;;;;;;4.25;3.17;;;;;7.80;100156.00;;;;5011870;28;20701;-79
2021/01/30 03:40:23;;;;;;;3.58;2.92;;;;;7.80;100149.00;;;;5011691;28;20208;-79
2021/01/30 03:42:50;;;;;;;4.47;3.75;;;;;7.80;100155.00;;;;5005847;28;20607;-78
2021/01/30 03:45:20;;;;;;;4.35;3.33;;;;;7.80;100148.00;;;;5012063;28;20247;-79
2021/01/30 03:47:47;;;;;;;5.10;3.50;;;;;7.80;100156.00;;;;5008452;28;20255;-78
2021/01/30 03:50:14;;;;;;;5.10;3.60;;;;;7.80;100150.00;;;;5011544;28;20239;-79
2021/01/30 03:52:41;;;;;;;3.90;3.22;;;;;7.90;100152.00;;;;5020921;28;20225;-79
2021/01/30 03:55:09;;;;;;;3.53;3.00;;;;;7.90;100151.00;;;;5031135;28;20224;-79
2021/01/30 03:57:36;;;;;;;4.00;3.00;;;;;7.80;100156.00;;;;5027507;28;20255;-79
2021/01/30 04:00:07;;;;;;;3.67;3.00;;;;;7.80;100161.00;;;;5028157;28;20193;-79
2021/01/30 04:02:34;;;;;;;3.45;3.10;;;;;7.80;100147.00;;;;5016642;28;20200;-79
2021/01/30 04:05:01;;;;;;;3.78;3.13;;;;;7.80;100150.00;;;;5031738;28;20633;-79
2021/01/30 04:07:28;;;;;;;4.10;2.95;;;;;7.80;100145.00;;;;5026813;28;20196;-79
2021/01/30 04:09:54;;;;;;;3.65;2.97;;;;;7.80;100142.00;;;;5011164;28;20224;-79
2021/01/30 04:12:22;;;;;;;3.22;2.92;;;;;7.80;100146.00;;;;5020395;28;20188;-80
2021/01/30 04:14:50;;;;;;;3.00;2.50;;;;;7.70;100135.00;;;;5004973;28;20566;-79
2021/01/30 04:17:16;;;;;;;3.05;2.50;;;;;7.70;100132.00;;;;5014370;28;20199;-79
2021/01/30 04:19:43;;;;;;;3.17;2.85;;;;;7.70;100132.00;;;;5031334;28;20200;-79
2021/01/30 04:22:10;;;;;;;3.45;2.53;;;;;7.70;100131.00;;;;5021733;28;20250;-79
2021/01/30 04:24:36;;;;;;;3.30;2.50;;;;;7.70;100141.00;;;;5030855;28;20216;-79
2021/01/30 04:27:03;;;;;;;3.75;2.90;;;;;7.70;100124.00;;;;5018841;28;20591;-79
2021/01/30 04:29:30;;;;;;;3.45;2.42;;;;;7.60;100122.00;;;;5012883;28;20608;-79
2021/01/30 04:31:59;;;;;;;2.85;2.30;;;;;7.60;100126.00;;;;5026057;28;20195;-79
2021/01/30 04:34:25;;;;;;;2.72;2.13;;;;;7.60;100111.00;;;;5027466;28;20232;-78
2021/01/30 04:36:52;;;;;;;3.47;2.42;;;;;7.60;100110.00;;;;5030785;28;20680;-80
2021/01/30 04:39:19;;;;;;;4.03;2.83;;;;;7.50;100106.00;;;;5027640;28;20200;-79
2021/01/30 04:41:53;;;;;;;3.13;2.53;;;;;7.50;100106.00;;;;5015080;28;20201;-79
2021/01/30 04:44:26;;;;;;;2.47;2.25;;;;;7.40;100099.00;;;;5005941;28;20216;-79
2021/01/30 04:47:09;;;;;;;3.00;2.08;;;;;7.30;100106.00;;;;5009748;28;20215;-79
2021/01/30 04:49:45;;;;;;;2.83;2.20;;;;;7.30;100108.00;;;;5006420;28;20192;-79
2021/01/30 04:52:31;;;;;;;4.00;2.40;;;;;7.30;100121.00;;;;5023492;28;20287;-79
2021/01/30 04:55:09;;;;;;;2.70;2.03;;;;;7.20;100127.00;;;;4990087;28;20230;-79
2021/01/30 04:57:59;;;;;;;2.72;2.30;;;;;7.10;100115.00;;;;5017507;28;20189;-79
2021/01/30 05:00:39;;;;;;;2.47;2.08;;;;;7.10;100109.00;;;;5012449;28;20204;-78
2021/01/30 05:03:32;;;;;;;3.28;1.98;;;;;7.10;100113.00;;;;5009246;28;20255;-78
2021/01/30 05:06:06;;;;;;;2.70;2.22;;;;;7.10;100114.00;;;;5006782;28;20244;-79
2021/01/30 05:08:39;;;;;;;2.92;2.20;;;;;7.10;100109.00;;;;5027005;28;20223;-78
2021/01/30 05:11:10;;;;;;;2.50;2.00;;;;;7.10;100110.00;;;;5023673;28;20200;-78
2021/01/30 05:13:41;;;;;;;2.78;2.38;;;;;7.10;100120.00;;;;5014715;28;20228;-78
2021/01/30 05:16:13;;;;;;;3.05;2.50;;;;;7.00;100130.00;;;;5010531;28;20192;-78
2021/01/30 05:18:47;;;;;;;3.42;2.33;;;;;7.00;100121.00;;;;5010088;28;20197;-78
2021/01/30 05:21:17;;;;;;;4.07;2.22;;;;;7.00;100123.00;;;;5018668;28;20235;-78
2021/01/30 05:23:48;;;;;;;2.97;2.15;;;;;6.90;100112.00;;;;5010364;28;20193;-78
2021/01/30 05:26:27;;;;;;;2.67;2.22;;;;;6.90;100116.00;;;;5026287;28;20200;-78
2021/01/30 05:29:03;;;;;;;3.08;2.28;;;;;6.90;100113.00;;;;5021507;28;20196;-78
2021/01/30 05:31:40;;;;;;;2.95;2.13;;;;;6.90;100115.00;;;;5018864;28;20200;-79
2021/01/30 05:34:12;;;;;;;3.65;2.40;;;;;6.90;100108.00;;;;5012317;28;20232;-78
2021/01/30 05:36:48;;;;;;;2.65;2.22;;;;;6.90;100114.00;;;;5009837;28;20200;-79
2021/01/30 05:39:36;;;;;;;3.05;2.15;;;;;6.80;100107.00;;;;5014884;28;20214;-78
2021/01/30 05:42:12;;;;;;;3.53;2.28;;;;;6.80;100125.00;;;;5016909;28;20200;-78
2021/01/30 05:44:44;;;;;;;3.20;2.33;;;;;6.80;100123.00;;;;5015180;28;20291;-78
2021/01/30 05:47:16;;;;;;;2.90;2.10;;;;;6.80;100124.00;;;;5008645;28;20674;-78
2021/01/30 05:49:58;;;;;;;4.30;2.42;;;;;6.70;100127.00;;;;5027344;28;20196;-78
2021/01/30 05:52:29;;;;;;;3.42;2.35;;;;;6.70;100117.00;;;;5022521;28;20207;-78
2021/01/30 05:54:56;;;;;;;3.25;2.38;;;;;6.70;100108.00;;;;5017185;28;20647;-78
2021/01/30 05:57:23;;;;;;;3.30;2.25;;;;;6.70;100104.00;;;;5028924;28;20192;-78
2021/01/30 05:59:53;;;;;;;2.88;2.40;;;;;6.60;100101.00;;;;5025142;28;20200;-77
2021/01/30 06:02:23;;;;;;;3.35;2.15;;;;;6.60;100107.00;;;;5024622;28;20200;-78
2021/01/30 06:04:51;;;;;;;3.28;2.20;;;;;6.60;100111.00;;;;5021861;28;20200;-78
2021/01/30 06:07:37;;;;;;;3.65;2.40;;;;;6.50;100113.00;;;;5023939;28;20200;-78
2021/01/30 06:10:25;;;;;;;4.15;2.70;;;;;6.50;100103.00;;;;5025651;28;20666;-78
2021/01/30 06:13:09;;;;;;;2.60;2.00;;;;;6.50;100109.00;;;;5018513;28;20259;-78
2021/01/30 06:15:37;;;;;;;3.45;2.13;;;;;6.50;100096.00;;;;4995704;28;20200;-79
2021/01/30 06:18:38;;;;;;;3.22;2.28;;;;;6.50;100091.00;;;;5017579;28;20251;-78
2021/01/30 06:21:12;;;;;;;3.13;2.17;;;;;6.50;100090.00;;;;4970330;28;20200;-78
2021/01/30 06:24:00;;;;;;;3.88;2.67;;;;;6.60;100105.00;;;;5010292;28;20607;-78
2021/01/30 06:26:27;;;;;;;2.63;1.73;;;;;6.60;100106.00;;;;5005144;28;20205;-78
2021/01/30 06:28:59;;;;;;;3.17;2.05;;;;;6.60;100115.00;;;;5023688;28;20200;-78
2021/01/30 06:31:30;;;;;;;2.72;1.85;;;;;6.70;100111.00;;;;5026820;28;20200;-78
2021/01/30 06:34:01;;;;;;;4.57;2.47;;;;;6.70;100117.00;;;;5027143;28;20362;-78
2021/01/30 06:36:32;;;;;;;3.53;2.38;;;;;6.80;100105.00;;;;5019232;28;20225;-78
2021/01/30 06:39:07;;;;;;;5.43;2.38;;;;;6.80;100104.00;;;;5008683;28;20227;-78
2021/01/30 06:41:35;;;;;;;4.47;2.65;;;;;6.80;100107.00;;;;5009738;28;20200;-78
2021/01/30 06:44:15;;;;;;;3.40;2.10;;;;;6.80;100109.00;;;;5006600;28;20216;-78
2021/01/30 06:47:09;;;;;;;2.78;2.03;;;;;6.80;100117.00;;;;5004489;28;20233;-78
2021/01/30 06:49:38;;;;;;;3.47;1.95;;;;;6.90;100114.00;;;;4990477;28;20197;-78
2021/01/30 06:52:11;;;;;;;4.18;2.25;;;;;6.90;100120.00;;;;5019501;28;20224;-78
2021/01/30 06:54:38;;;;;;;3.55;2.22;;;;;6.90;100117.00;;;;5020406;28;20240;-79
2021/01/30 06:57:09;;;;;;;3.42;2.78;;;;;6.90;100118.00;;;;5014604;28;20208;-78
2021/01/30 06:59:49;;;;;;;2.90;2.08;;;;;6.90;100115.00;;;;5008599;28;20204;-79
2021/01/30 07:02:22;;;;;;;3.10;2.03;;;;;6.90;100115.00;;;;5017432;28;20247;-78
2021/01/30 07:05:06;;;;;;;3.70;2.25;;;;;6.90;100127.00;;;;5028433;28;20204;-79
2021/01/30 07:07:44;;;;;;;3.05;2.50;;;;;7.00;100120.00;;;;5017212;28;20196;-79
2021/01/30 07:10:26;;;;;;;3.38;2.28;;;;;7.00;100112.00;;;;5018777;28;20247;-79
2021/01/30 07:13:08;;;;;;;3.00;2.08;;;;;7.00;100115.00;;;;5015360;28;20188;-79
2021/01/30 07:15:40;;;;;;;3.13;1.98;;;;;7.10;100120.00;;;;5023452;28;20201;-78
2021/01/30 07:18:31;;;;;;;2.65;1.80;;;;;7.00;100125.00;;;;4989965;28;20197;-79
2021/01/30 07:21:11;;;;;;;3.70;1.67;;;;;7.00;100123.00;;;;5000201;28;20207;-79
2021/01/30 07:23:44;;;;;;;3.92;2.33;;;;;7.10;100130.00;;;;5026408;28;20200;-79
2021/01/30 07:26:18;;;;;;;2.83;2.00;;;;;7.10;100125.00;;;;5028546;28;20211;-79
2021/01/30 07:28:52;;;;;;;1.80;1.45;;;;;7.10;100130.00;;;;5016705;28;20204;-80
2021/01/30 07:31:31;;;;;;;2.53;1.80;;;;;7.00;100127.00;;;;5000553;28;20193;-80
2021/01/30 07:34:05;;;;;;;2.47;1.80;;;;;7.00;100126.00;;;;5010464;28;20309;-79
2021/01/30 07:36:43;;;;;;;3.45;2.42;;;;;7.00;100127.00;;;;5015716;28;20626;-80
2021/01/30 07:39:31;;;;;;;3.88;2.80;;;;;6.90;100121.00;;;;5017135;28;20200;-80
2021/01/30 07:42:01;;;;;;;3.45;2.38;;;;;7.00;100122.00;;;;5016800;28;20209;-80
2021/01/30 07:44:33;;;;;;;3.50;2.47;;;;;7.00;100112.00;;;;5014743;28;20734;-81
2021/01/30 07:47:14;;;;;;;3.35;2.42;;;;;6.90;100113.00;;;;5021179;28;20204;-80
2021/01/30 07:49:46;;;;;;;3.60;2.75;;;;;7.00;100121.00;;;;5025405;28;20197;-79
2021/01/30 07:52:17;;;;;;;3.42;2.65;;;;;7.00;100118.00;;;;5022077;28;20211;-80
2021/01/30 07:54:48;;;;;;;4.20;2.80;;;;;7.00;100119.00;;;;5000853;28;20236;-80
2021/01/30 07:57:45;;;;;;;3.22;2.65;;;;;6.90;100120.00;;;;5011972;28;20573;-80
2021/01/30 08:00:18;;;;;;;3.75;2.30;;;;;7.00;100115.00;;;;5010804;28;20534;-78
2021/01/30 08:03:10;;;;;;;3.97;2.90;;;;;7.00;100117.00;;;;5009418;28;20207;-78
2021/01/30 08:05:38;;;;;;;4.18;2.85;;;;;7.10;100110.00;;;;4993478;28;20686;-78
2021/01/30 08:08:17;;;;;;;4.32;2.95;;;;;7.00;100116.00;;;;5015214;28;20200;-79
2021/01/30 08:10:55;;;;;;;4.07;2.72;;;;;7.00;100114.00;;;;5010440;28;20200;-77
2021/01/30 08:13:34;;;;;;;4.45;3.38;;;;;7.10;100110.00;;;;5011758;28;20227;-78
2021/01/30 08:16:14;;;;;;;3.85;2.80;;;;;7.10;100110.00;;;;5009381;28;20235;-78
2021/01/30 08:18:42;;;;;;;4.07;2.78;;;;;7.10;100101.00;;;;5003541;28;20732;-78
2021/01/30 08:21:19;;;;;;;4.85;2.90;;;;;7.10;100103.00;;;;5014068;28;20201;-78
2021/01/30 08:23:58;;;;;;;5.43;3.58;;;;;7.10;100102.00;;;;5017259;28;20204;-79
2021/01/30 08:26:30;;;;;;;3.65;2.55;;;;;7.20;100107.00;;;;5009433;28;20201;-77
2021/01/30 08:29:13;;;;;;;3.40;2.58;;;;;7.10;100101.00;;;;5008816;28;20196;-77
2021/01/30 08:31:43;;;;;;;5.38;3.30;;;;;7.30;100093.00;;;;5019445;28;20258;-77
2021/01/30 08:34:31;;;;;;;4.65;2.83;;;;;7.30;100096.00;;;;5024622;28;20231;-78
2021/01/30 08:36:59;;;;;;;3.67;2.67;;;;;7.30;100102.00;;;;5004637;28;20189;-77
2021/01/30 08:39:29;;;;;;;3.35;2.13;;;;;7.40;100110.00;;;;5022015;28;20217;-78
2021/01/30 08:42:00;;;;;;;4.70;2.97;;;;;7.40;100106.00;;;;5010408;28;20204;-77
2021/01/30 08:44:51;;;;;;;3.13;2.10;;;;;7.40;100104.00;;;;5013835;28;20193;-77
2021/01/30 08:47:23;;;;;;;3.78;2.35;;;;;7.40;100106.00;;;;5009609;28;20296;-77
2021/01/30 08:50:10;;;;;;;3.90;2.55;;;;;7.40;100090.00;;;;5009929;28;20193;-77
2021/01/30 08:53:11;;;;;;;4.60;3.00;;;;;7.40;100087.00;;;;5011679;28;20201;-79
2021/01/30 08:55:53;;;;;;;3.42;2.65;;;;;7.40;100108.00;;;;5028677;28;20196;-79
2021/01/30 08:58:49;;;;;;;3.88;2.30;;;;;7.40;100096.00;;;;5028898;28;20199;-78
2021/01/30 09:01:48;;;;;;;4.25;2.65;;;;;7.50;100097.00;;;;5029715;28;20712;-79
2021/01/30 09:04:43;;;;;;;3.85;2.63;;;;;7.50;100090.00;;;;5028866;28;20196;-79
2021/01/30 09:07:38;;;;;;;3.45;2.42;;;;;7.50;100092.00;;;;5028059;28;20288;-79
2021/01/30 09:10:35;;;;;;;3.03;2.20;;;;;7.50;100099.00;;;;5029289;28;20201;-80
2021/01/30 09:13:08;;;;;;;3.40;2.20;;;;;7.60;100098.00;;;;5031088;28;20323;-81
2021/01/30 09:16:01;;;;;;;5.15;2.75;;;;;7.50;100091.00;;;;5029951;28;20206;-81
2021/01/30 09:18:51;;;;;;;4.32;2.60;;;;;7.50;100096.00;;;;5031789;28;20199;-80
2021/01/30 09:21:33;;;;;;;3.83;1.98;;;;;7.70;100080.00;;;;5029911;28;20214;-80
2021/01/30 09:24:37;;;;;;;3.58;2.30;;;;;7.60;100078.00;;;;5034287;28;20200;-80
2021/01/30 09:27:13;;;;;;;2.95;1.85;;;;;7.70;100082.00;;;;4993370;28;20200;-79
2021/01/30 09:29:42;;;;;;;3.92;2.50;;;;;7.70;100080.00;;;;5029717;28;20207;-80
2021/01/30 09:32:13;;;;;;;3.40;2.25;;;;;7.80;100078.00;;;;5028757;28;20204;-81
2021/01/30 09:34:47;;;;;;;4.22;2.90;;;;;7.80;100078.00;;;;5029374;28;20224;-80
2021/01/30 09:37:32;;;;;;;3.53;2.33;;;;;7.80;100066.00;;;;5049623;28;20205;-79
2021/01/30 09:40:00;;;;;;;3.75;2.38;;;;;7.90;100074.00;;;;5061566;28;20207;-79
2021/01/30 09:42:29;;;;;;;4.63;2.55;;;;;8.00;100070.00;;;;5040100;28;20254;-78
2021/01/30 09:45:10;;;;;;;4.18;2.45;;;;;8.00;100073.00;;;;5040484;28;20227;-78
2021/01/30 09:47:43;;;;;;;4.60;2.80;;;;;8.00;100080.00;;;;5038214;28;20711;-80
2021/01/30 09:50:14;;;;;;;4.13;2.58;;;;;8.10;100078.00;;;;5028311;28;20196;-79
2021/01/30 09:52:50;;;;;;;4.68;2.42;;;;;8.10;100081.00;;;;5035144;28;20200;-80
2021/01/30 09:55:17;;;;;;;3.22;2.10;;;;;8.20;100077.00;;;;5048919;28;20259;-79
2021/01/30 09:57:45;;;;;;;3.08;2.10;;;;;8.20;100084.00;;;;5033061;28;20565;-80
2021/01/30 10:00:16;;;;;;;4.07;2.50;;;;;8.20;100087.00;;;;5039779;28;20202;-80
2021/01/30 10:02:43;;;;;;;4.60;2.78;;;;;8.30;100085.00;;;;5019599;28;20200;-80
2021/01/30 10:05:14;;;;;;;4.47;2.58;;;;;8.30;100092.00;;;;5044542;28;20197;-78
2021/01/30 10:07:41;;;;;;;4.07;2.63;;;;;8.40;100093.00;;;;5039420;28;20199;-79
2021/01/30 10:10:28;;;;;;;3.40;2.25;;;;;8.30;100087.00;;;;5039880;28;20203;-78
2021/01/30 10:12:56;;;;;;;3.17;2.30;;;;;8.50;100086.00;;;;5046234;28;20188;-79
2021/01/30 10:15:29;;;;;;;3.85;2.50;;;;;8.50;100089.00;;;;5038093;28;20223;-79
2021/01/30 10:18:02;;;;;;;4.32;2.42;;;;;8.50;100088.00;;;;5012107;28;20196;-78
2021/01/30 10:20:40;;;;;;;4.32;2.83;;;;;8.60;100089.00;;;;5030980;28;20196;-78
2021/01/30 10:23:10;;;;;;;3.60;2.47;;;;;8.60;100083.00;;;;5028997;28;20200;-78
2021/01/30 10:25:36;;;;;;;3.67;2.20;;;;;8.60;100079.00;;;;5037144;28;21212;-79
2021/01/30 10:28:06;;;;;;;3.80;2.70;;;;;8.60;100077.00;;;;5029638;28;20203;-79
2021/01/30 10:30:33;;;;;;;4.32;2.80;;;;;8.70;100078.00;;;;5041244;28;20994;-78
2021/01/30 10:33:03;;;;;;;3.03;2.28;;;;;8.70;100089.00;;;;5048218;28;20838;-79
2021/01/30 10:35:33;;;;;;;3.35;2.17;;;;;8.80;100088.00;;;;5035587;28;20629;-78
2021/01/30 10:38:06;;;;;;;3.63;2.47;;;;;8.80;100074.00;;;;5030504;28;20744;-78
2021/01/30 10:40:36;;;;;;;4.07;2.47;;;;;8.90;100074.00;;;;5035693;28;20728;-78
2021/01/30 10:43:06;;;;;;;3.83;2.58;;;;;8.90;100078.00;;;;5038101;28;20679;-78
2021/01/30 10:45:35;;;;;;;4.72;2.45;;;;;8.90;100068.00;;;;5048608;28;20204;-78
2021/01/30 10:48:07;;;;;;;3.08;2.17;;;;;9.00;100067.00;;;;5037151;28;20670;-78
2021/01/30 10:50:37;;;;;;;3.15;2.10;;;;;9.00;100076.00;;;;5031966;28;20197;-78
2021/01/30 10:53:30;;;;;;;3.92;2.58;;;;;9.00;100067.00;;;;5038246;28;20573;-77
2021/01/30 10:55:57;;;;;;;2.80;1.95;;;;;9.10;100069.00;;;;5047853;28;20639;-77
2021/01/30 10:58:32;;;;;;;2.65;1.77;;;;;9.10;100063.00;;;;5039310;28;20231;-76
2021/01/30 11:01:02;;;;;;;2.58;1.85;;;;;9.20;100059.00;;;;5039308;28;20269;-76
2021/01/30 11:03:42;;;;;;;3.03;1.92;;;;;9.20;100069.00;;;;5029784;28;20275;-77
2021/01/30 11:06:22;;;;;;;2.70;2.10;;;;;9.30;100065.00;;;;5030367;28;20191;-76
2021/01/30 11:08:50;;;;;;;2.63;1.77;;;;;9.40;100065.00;;;;5043957;28;20606;-77
2021/01/30 11:11:26;;;;;;;2.70;1.90;;;;;9.40;100069.00;;;;5025837;28;20688;-76
2021/01/30 11:13:54;;;;;;;2.90;2.03;;;;;9.50;100065.00;;;;5027661;28;21004;-76
2021/01/30 11:16:28;;;;;;;3.40;2.60;;;;;9.50;100063.00;;;;5035005;28;20207;-79
2021/01/30 11:18:56;;;;;;;3.35;2.13;;;;;9.60;100064.00;;;;5035500;28;20649;-79
2021/01/30 11:21:34;;;;;;;3.67;2.60;;;;;9.50;100065.00;;;;5038643;28;20616;-77
2021/01/30 11:24:18;;;;;;;3.17;2.03;;;;;9.60;100049.00;;;;5037897;28;20737;-78
2021/01/30 11:26:45;;;;;;;3.05;1.88;;;;;9.60;100062.00;;;;5039999;28;20510;-78
2021/01/30 11:29:35;;;;;;;2.95;1.98;;;;;9.60;100054.00;;;;5035481;28;20214;-77
2021/01/30 11:32:04;;;;;;;2.75;2.28;;;;;9.70;100049.00;;;;5029771;28;20201;-78
2021/01/30 11:34:32;;;;;;;3.33;2.38;;;;;9.70;100045.00;;;;5035435;28;20627;-79
2021/01/30 11:37:00;;;;;;;2.90;2.15;;;;;9.70;100038.00;;;;5032459;28;20204;-77
2021/01/30 11:39:29;;;;;;;2.88;2.20;;;;;9.70;100035.00;;;;5041733;28;20586;-77
2021/01/30 11:41:57;;;;;;;3.42;2.15;;;;;9.80;100034.00;;;;5036077;28;20662;-78
2021/01/30 11:44:25;;;;;;;2.83;2.08;;;;;9.80;100033.00;;;;5038187;28;20257;-78
2021/01/30 11:46:52;;;;;;;3.03;2.22;;;;;9.80;100029.00;;;;5041635;28;20230;-77
2021/01/30 11:49:19;;;;;;;4.15;2.25;;;;;9.80;100032.00;;;;5037450;28;20239;-77
2021/01/30 11:51:46;;;;;;;4.53;2.60;;;;;9.80;100027.00;;;;5041688;28;20345;-78
2021/01/30 11:54:13;;;;;;;2.88;2.10;;;;;9.90;100028.00;;;;5032177;28;20240;-79
2021/01/30 11:56:41;;;;;;;3.05;2.40;;;;;9.90;100027.00;;;;5039478;28;20195;-78
2021/01/30 11:59:09;;;;;;;4.05;2.80;;;;;9.90;100022.00;;;;5031517;28;20227;-77
2021/01/30 12:01:35;;;;;;;3.28;2.67;;;;;9.80;100018.00;;;;5029305;28;20227;-77
2021/01/30 12:04:02;;;;;;;4.40;2.50;;;;;9.80;100018.00;;;;5051023;28;20200;-78
2021/01/30 12:06:29;;;;;;;3.10;2.30;;;;;9.80;100015.00;;;;5036821;28;20215;-78
2021/01/30 12:08:57;;;;;;;3.17;2.00;;;;;9.80;100010.00;;;;5051305;28;20930;-78
2021/01/30 12:11:24;;;;;;;3.88;3.00;;;;;9.80;100003.00;;;;5040164;28;20204;-78
2021/01/30 12:13:51;;;;;;;5.18;2.80;;;;;9.80;100007.00;;;;5041692;28;20219;-77
2021/01/30 12:16:20;;;;;;;3.72;2.60;;;;;9.80;99993.00;;;;5040082;28;20677;-78
2021/01/30 12:18:47;;;;;;;3.15;2.20;;;;;9.80;99992.00;;;;5030743;28;20192;-78
2021/01/30 12:21:14;;;;;;;4.53;2.50;;;;;9.80;99983.00;;;;5032108;28;20196;-79
2021/01/30 12:23:40;;;;;;;3.60;2.63;;;;;9.80;99983.00;;;;5030034;28;20227;-78
2021/01/30 12:26:11;;;;;;;3.40;2.60;;;;;9.80;99980.00;;;;5030189;28;20231;-79
2021/01/30 12:28:38;;;;;;;4.00;2.58;;;;;9.90;99981.00;;;;5030327;28;20262;-79
2021/01/30 12:31:05;;;;;;;3.80;2.92;;;;;9.90;99983.00;;;;5042123;28;20577;-78
2021/01/30 12:33:33;;;;;;;3.13;2.25;;;;;9.90;99972.00;;;;5035459;28;20361;-79
2021/01/30 12:35:59;;;;;;;3.60;2.65;;;;;10.00;99980.00;;;;5032296;28;20635;-79
2021/01/30 12:38:32;;;;;;;3.92;3.03;;;;;10.00;99973.00;;;;5028369;28;20200;-78
2021/01/30 12:40:59;;;;;;;4.10;2.80;;;;;10.00;99968.00;;;;5032184;28;20203;-79
2021/01/30 12:43:27;;;;;;;3.55;2.45;;;;;10.00;99968.00;;;;5031503;28;20208;-80
2021/01/30 12:45:54;;;;;;;4.07;3.00;;;;;10.00;99962.00;;;;5028768;28;20266;-78
2021/01/30 12:48:21;;;;;;;3.95;2.88;;;;;10.00;99954.00;;;;5028787;28;20207;-78